Time;durP1;ratioP1;P1;durP2;ratioP2;P2;SDS_P1;SDS_P2;PMS_P1;PMS_P2;Temp;Humidity;BMP_temperature;BMP_pressure;BME280_temperature;BME280_humidity;BME280_pressure;Samples;Min_cycle;Max_cycle;Signal;HPM_P1;HPM_P2
2022/10/24 00:02:13;;;;;;;4.18;2.38;;;15.30;99.90;;;;;;5069980;28;20028;-69
2022/10/24 00:04:39;;;;;;;6.78;1.70;;;15.30;99.90;;;;;;5074936;28;20420;-69
2022/10/24 00:07:06;;;;;;;4.35;1.90;;;15.30;99.90;;;;;;5073288;28;20021;-69
2022/10/24 00:09:34;;;;;;;6.82;1.83;;;15.40;99.90;;;;;;5074419;28;20028;-69
2022/10/24 00:11:59;;;;;;;11.05;2.83;;;15.40;99.90;;;;;;5074524;28;20040;-70
2022/10/24 00:14:25;;;;;;;12.70;3.60;;;15.40;99.90;;;;;;5068922;28;20051;-69
2022/10/24 00:16:51;;;;;;;11.23;3.65;;;15.40;99.90;;;;;;5074162;28;20029;-70
2022/10/24 00:19:17;;;;;;;10.10;3.13;;;15.40;99.90;;;;;;5074244;28;20029;-70
2022/10/24 00:21:42;;;;;;;9.68;3.70;;;15.40;99.90;;;;;;5074263;28;20517;-70
2022/10/24 00:24:08;;;;;;;11.20;3.70;;;15.40;99.90;;;;;;5074397;28;20493;-70
2022/10/24 00:26:35;;;;;;;8.95;2.55;;;15.40;99.90;;;;;;5073767;28;20032;-70
2022/10/24 00:29:00;;;;;;;8.35;2.60;;;15.40;99.90;;;;;;5074612;28;20102;-70
2022/10/24 00:31:27;;;;;;;9.88;2.67;;;15.40;99.90;;;;;;5068103;28;20044;-70
2022/10/24 00:33:52;;;;;;;9.48;2.95;;;15.40;99.90;;;;;;5073969;28;20103;-71
2022/10/24 00:36:21;;;;;;;12.02;3.53;;;15.40;99.90;;;;;;5077143;28;20116;-70
2022/10/24 00:38:48;;;;;;;8.15;2.85;;;15.50;99.90;;;;;;5073942;28;20036;-72
2022/10/24 00:41:16;;;;;;;9.68;2.97;;;15.50;99.90;;;;;;5073678;28;20032;-69
2022/10/24 00:43:43;;;;;;;12.40;2.85;;;15.60;99.90;;;;;;5073625;28;20142;-70
2022/10/24 00:46:09;;;;;;;10.80;2.90;;;15.60;99.90;;;;;;5073697;28;20032;-70
2022/10/24 00:48:37;;;;;;;8.27;3.10;;;15.70;99.90;;;;;;5073016;28;20028;-70
2022/10/24 00:51:15;;;;;;;6.43;2.67;;;15.70;99.90;;;;;;5073926;28;20137;-70
2022/10/24 00:53:43;;;;;;;9.07;3.33;;;15.80;99.90;;;;;;5074140;28;20104;-70
2022/10/24 00:56:12;;;;;;;10.77;3.42;;;15.80;99.90;;;;;;5075133;28;20021;-70
2022/10/24 00:58:40;;;;;;;10.20;3.35;;;15.80;99.90;;;;;;5081878;28;20077;-70
2022/10/24 01:01:07;;;;;;;7.30;2.72;;;15.90;99.90;;;;;;5075959;28;20044;-69
2022/10/24 01:03:36;;;;;;;7.10;3.42;;;15.90;99.90;;;;;;5083151;28;20120;-70
2022/10/24 01:06:23;;;;;;;8.13;2.75;;;15.90;99.90;;;;;;5082681;28;20077;-70
2022/10/24 01:09:15;;;;;;;11.68;3.47;;;15.90;99.90;;;;;;5079974;28;20099;-71
2022/10/24 01:11:59;;;;;;;9.13;3.20;;;15.90;99.90;;;;;;5085299;28;20071;-70
2022/10/24 01:14:36;;;;;;;16.48;3.47;;;15.90;99.90;;;;;;5082374;28;20027;-69
2022/10/24 01:17:25;;;;;;;9.60;3.20;;;16.00;99.90;;;;;;5081658;28;20125;-70
2022/10/24 01:20:16;;;;;;;7.07;2.60;;;16.00;99.90;;;;;;5079742;28;20024;-69
2022/10/24 01:23:20;;;;;;;11.65;3.00;;;16.00;99.90;;;;;;5081073;28;20025;-70
2022/10/24 01:26:02;;;;;;;6.85;2.97;;;16.00;99.90;;;;;;5082299;28;20452;-69
2022/10/24 01:28:49;;;;;;;7.75;2.17;;;16.00;99.90;;;;;;5081235;28;20048;-70
2022/10/24 01:31:27;;;;;;;13.25;3.35;;;16.00;99.90;;;;;;5081568;28;20036;-72
2022/10/24 01:34:00;;;;;;;5.15;2.00;;;16.10;99.90;;;;;;5080077;28;20025;-70
2022/10/24 01:36:54;;;;;;;11.13;4.57;;;16.10;99.90;;;;;;5081187;28;20074;-69
2022/10/24 01:39:22;;;;;;;12.38;3.38;;;16.10;99.90;;;;;;5080239;28;20035;-69
2022/10/24 01:41:50;;;;;;;8.07;2.80;;;16.10;99.90;;;;;;5080712;28;20457;-69
2022/10/24 01:44:23;;;;;;;8.35;2.40;;;16.20;99.90;;;;;;5082266;28;20052;-70
2022/10/24 01:46:54;;;;;;;12.70;2.53;;;16.20;99.90;;;;;;5079105;28;20103;-69
2022/10/24 01:49:23;;;;;;;7.18;2.63;;;16.20;99.90;;;;;;5080989;28;20032;-70
2022/10/24 01:51:54;;;;;;;9.27;2.92;;;16.30;99.90;;;;;;5080901;28;20486;-70
2022/10/24 01:54:20;;;;;;;6.72;2.55;;;16.30;99.90;;;;;;5081368;28;20047;-69
2022/10/24 01:56:46;;;;;;;9.73;2.85;;;16.30;99.90;;;;;;5071151;28;20055;-69
2022/10/24 01:59:29;;;;;;;3.95;2.05;;;16.30;99.90;;;;;;5072494;28;20016;-69
2022/10/24 02:02:15;;;;;;;8.27;1.70;;;16.40;99.90;;;;;;5070561;28;20037;-69
2022/10/24 02:04:49;;;;;;;8.98;2.40;;;16.30;99.90;;;;;;5071300;28;20031;-69
2022/10/24 02:07:17;;;;;;;6.78;2.22;;;16.30;99.90;;;;;;5072494;28;20025;-69
2022/10/24 02:09:45;;;;;;;7.80;2.03;;;16.20;99.90;;;;;;5072736;28;20106;-69
2022/10/24 02:12:14;;;;;;;8.40;2.45;;;16.10;99.90;;;;;;5066851;28;20035;-69
2022/10/24 02:14:47;;;;;;;9.43;2.35;;;16.10;99.90;;;;;;5067475;28;20052;-68
2022/10/24 02:17:14;;;;;;;11.82;2.80;;;16.00;99.90;;;;;;5082968;28;20143;-70
2022/10/24 02:19:40;;;;;;;5.55;2.28;;;16.00;99.90;;;;;;5082791;28;20036;-69
2022/10/24 02:22:24;;;;;;;7.18;1.95;;;16.00;99.90;;;;;;5072651;28;20412;-69
2022/10/24 02:25:08;;;;;;;10.48;2.55;;;15.90;99.90;;;;;;5072744;28;20020;-71
2022/10/24 02:27:47;;;;;;;7.90;2.47;;;15.90;99.90;;;;;;5072219;28;20078;-69
2022/10/24 02:30:19;;;;;;;6.55;1.90;;;15.90;99.90;;;;;;5062893;28;20031;-69
2022/10/24 02:32:55;;;;;;;6.47;2.00;;;15.90;99.90;;;;;;5072782;28;20040;-69
2022/10/24 02:35:31;;;;;;;5.75;2.10;;;15.90;99.90;;;;;;5072584;28;20021;-69
2022/10/24 02:38:03;;;;;;;8.52;1.95;;;15.80;99.90;;;;;;5072934;28;20032;-70
2022/10/24 02:40:30;;;;;;;6.65;1.77;;;15.80;99.90;;;;;;5072976;28;20596;-69
2022/10/24 02:42:58;;;;;;;3.28;1.60;;;15.90;99.90;;;;;;5072511;28;20032;-70
2022/10/24 02:45:24;;;;;;;6.93;1.60;;;15.90;99.90;;;;;;5072007;28;20056;-69
2022/10/24 02:47:55;;;;;;;7.30;1.80;;;15.90;99.90;;;;;;5071430;28;20085;-69
2022/10/24 02:50:21;;;;;;;6.67;1.33;;;16.00;99.90;;;;;;5071289;28;20021;-69
2022/10/24 02:52:47;;;;;;;7.38;1.83;;;16.00;99.90;;;;;;5071211;28;20455;-71
2022/10/24 02:55:13;;;;;;;10.20;1.83;;;16.00;99.90;;;;;;5072051;28;20066;-69
2022/10/24 02:57:39;;;;;;;4.85;1.50;;;16.10;99.90;;;;;;5070817;28;20032;-69
2022/10/24 03:00:06;;;;;;;7.53;1.70;;;16.10;99.90;;;;;;5072874;28;20096;-71
2022/10/24 03:02:31;;;;;;;7.28;1.65;;;16.10;99.90;;;;;;5072721;28;20032;-70
2022/10/24 03:04:57;;;;;;;4.53;1.50;;;16.10;99.90;;;;;;5072629;28;20047;-69
2022/10/24 03:07:22;;;;;;;2.63;1.30;;;16.20;99.90;;;;;;5072633;28;20058;-69
2022/10/24 03:09:48;;;;;;;10.75;2.00;;;16.20;99.90;;;;;;5072330;28;20455;-69
2022/10/24 03:12:15;;;;;;;4.38;1.23;;;16.30;99.90;;;;;;5073677;28;20914;-69
2022/10/24 03:14:41;;;;;;;4.93;1.30;;;16.20;99.90;;;;;;5076130;28;20021;-69
2022/10/24 03:17:07;;;;;;;7.82;1.85;;;16.20;99.90;;;;;;5092342;28;20643;-69
2022/10/24 03:19:32;;;;;;;7.30;1.60;;;16.20;99.90;;;;;;5076541;28;20024;-70
2022/10/24 03:21:58;;;;;;;5.90;1.42;;;16.20;99.90;;;;;;5060410;28;20035;-69
2022/10/24 03:24:23;;;;;;;6.18;1.45;;;16.20;99.90;;;;;;5056431;28;20017;-68
2022/10/24 03:26:51;;;;;;;8.82;1.70;;;16.20;99.90;;;;;;5056263;28;20036;-69
2022/10/24 03:29:17;;;;;;;3.45;1.65;;;16.20;99.90;;;;;;5072561;28;20058;-69
2022/10/24 03:31:43;;;;;;;6.55;1.70;;;16.20;99.90;;;;;;5076068;28;20171;-68
2022/10/24 03:34:08;;;;;;;7.05;1.33;;;16.20;99.90;;;;;;5076080;28;20021;-69
2022/10/24 03:36:34;;;;;;;7.97;1.50;;;16.20;99.90;;;;;;5076133;28;20056;-70
2022/10/24 03:38:59;;;;;;;5.18;1.38;;;16.20;99.90;;;;;;5075948;28;20082;-69
2022/10/24 03:41:25;;;;;;;3.40;1.10;;;16.20;99.90;;;;;;5075855;28;20028;-68
2022/10/24 03:43:53;;;;;;;7.43;1.80;;;16.10;99.90;;;;;;5075936;28;20023;-69
2022/10/24 03:46:19;;;;;;;5.55;1.40;;;16.10;99.90;;;;;;5076068;28;20516;-69
2022/10/24 03:48:45;;;;;;;4.65;1.27;;;16.20;99.90;;;;;;5076012;28;20028;-70
2022/10/24 03:51:11;;;;;;;8.70;1.20;;;16.20;99.90;;;;;;5075497;28;20032;-69
2022/10/24 03:53:37;;;;;;;5.82;1.80;;;16.20;99.90;;;;;;5075912;28;20073;-69
2022/10/24 03:56:03;;;;;;;6.90;1.45;;;16.30;99.90;;;;;;5075690;28;20046;-69
2022/10/24 03:58:28;;;;;;;8.80;1.40;;;16.30;99.90;;;;;;5076112;28;20024;-68
2022/10/24 04:00:57;;;;;;;7.88;1.83;;;16.30;99.90;;;;;;5071738;28;20017;-68
2022/10/24 04:03:22;;;;;;;2.90;1.13;;;16.30;99.90;;;;;;5075444;28;20036;-68
2022/10/24 04:05:48;;;;;;;11.15;1.48;;;16.30;99.90;;;;;;5075187;28;20012;-69
2022/10/24 04:08:13;;;;;;;9.85;1.40;;;16.30;99.90;;;;;;5075828;28;20032;-70
2022/10/24 04:10:39;;;;;;;11.60;2.10;;;16.30;99.90;;;;;;5075817;28;20027;-68
2022/10/24 04:13:05;;;;;;;6.30;1.00;;;16.30;99.90;;;;;;5075110;28;20037;-69
2022/10/24 04:15:30;;;;;;;7.85;1.42;;;16.30;99.90;;;;;;5090990;28;20029;-69
2022/10/24 04:17:56;;;;;;;9.32;2.38;;;16.40;99.90;;;;;;5074682;28;20074;-69
2022/10/24 04:20:22;;;;;;;7.10;1.48;;;16.40;99.90;;;;;;5075045;28;20020;-70
2022/10/24 04:22:48;;;;;;;5.68;1.65;;;16.50;99.90;;;;;;5075316;28;20035;-70
2022/10/24 04:25:15;;;;;;;7.07;1.60;;;16.50;99.90;;;;;;5075568;28;20024;-70
2022/10/24 04:27:40;;;;;;;6.85;1.17;;;16.50;99.90;;;;;;5074585;28;20033;-70
2022/10/24 04:30:11;;;;;;;8.07;1.30;;;16.60;99.90;;;;;;5075120;28;20027;-70
2022/10/24 04:32:37;;;;;;;6.80;1.23;;;16.50;99.90;;;;;;5075195;28;20123;-70
2022/10/24 04:35:03;;;;;;;8.48;1.58;;;16.60;99.90;;;;;;5075215;28;20104;-70
2022/10/24 04:37:29;;;;;;;4.88;1.20;;;16.60;99.90;;;;;;5074736;28;20430;-69
2022/10/24 04:39:54;;;;;;;11.57;2.20;;;16.60;99.90;;;;;;5075203;28;20020;-70
2022/10/24 04:42:21;;;;;;;5.60;1.27;;;16.50;99.90;;;;;;5074857;28;20024;-69
2022/10/24 04:44:47;;;;;;;5.68;1.00;;;16.50;99.90;;;;;;5075030;28;20025;-69
2022/10/24 04:47:12;;;;;;;8.70;1.30;;;16.50;99.90;;;;;;5074805;28;20444;-70
2022/10/24 04:49:38;;;;;;;7.70;1.48;;;16.50;99.90;;;;;;5074403;28;20075;-69
2022/10/24 04:52:03;;;;;;;4.13;0.88;;;16.50;99.90;;;;;;5074806;28;20025;-69
2022/10/24 04:54:29;;;;;;;7.35;1.92;;;16.50;99.90;;;;;;5074859;28;20021;-69
2022/10/24 04:56:55;;;;;;;8.18;2.17;;;16.50;99.90;;;;;;5074394;28;20021;-70
2022/10/24 04:59:20;;;;;;;6.03;1.92;;;16.50;99.90;;;;;;5074430;28;20109;-70
2022/10/24 05:01:46;;;;;;;7.28;1.67;;;16.50;99.90;;;;;;5074597;28;20032;-70
2022/10/24 05:04:11;;;;;;;6.47;1.33;;;16.50;99.90;;;;;;5074640;28;20024;-70
2022/10/24 05:06:37;;;;;;;7.85;1.90;;;16.40;99.90;;;;;;5074723;28;20048;-69
2022/10/24 05:09:03;;;;;;;4.97;1.27;;;16.40;99.90;;;;;;5074580;28;20024;-70
2022/10/24 05:11:29;;;;;;;11.10;2.83;;;16.40;99.90;;;;;;5074381;28;20040;-69
2022/10/24 05:13:54;;;;;;;7.72;1.23;;;16.40;99.90;;;;;;5074077;28;20016;-70
2022/10/24 05:16:20;;;;;;;12.68;1.88;;;16.40;99.90;;;;;;5074377;28;20017;-70
2022/10/24 05:18:46;;;;;;;7.95;1.80;;;16.40;99.90;;;;;;5074263;28;20051;-69
2022/10/24 05:21:11;;;;;;;11.13;3.03;;;16.40;99.90;;;;;;5071652;28;20060;-69
2022/10/24 05:23:37;;;;;;;10.95;1.83;;;16.50;99.90;;;;;;5073967;28;20013;-69
2022/10/24 05:26:02;;;;;;;6.60;1.48;;;16.50;99.90;;;;;;5074103;28;20016;-69
2022/10/24 05:28:28;;;;;;;9.98;1.95;;;16.50;99.90;;;;;;5073839;28;20055;-69
2022/10/24 05:30:54;;;;;;;11.77;2.03;;;16.60;99.90;;;;;;5073917;28;20161;-69
2022/10/24 05:33:19;;;;;;;8.95;2.00;;;16.60;99.90;;;;;;5073437;28;20118;-69
2022/10/24 05:35:45;;;;;;;8.77;1.85;;;16.60;99.90;;;;;;5074069;28;20073;-69
2022/10/24 05:38:10;;;;;;;13.15;3.13;;;16.60;99.90;;;;;;5074198;28;20026;-69
2022/10/24 05:40:36;;;;;;;9.13;1.77;;;16.60;99.90;;;;;;5073577;28;20350;-69
2022/10/24 05:43:02;;;;;;;12.60;3.38;;;16.70;99.90;;;;;;5073481;28;20025;-68
2022/10/24 05:45:27;;;;;;;8.52;1.63;;;16.70;99.90;;;;;;5073700;28;20024;-69
2022/10/24 05:47:53;;;;;;;8.95;1.85;;;16.70;99.90;;;;;;5073400;28;20027;-69
2022/10/24 05:50:19;;;;;;;7.35;0.80;;;16.70;99.90;;;;;;5084851;28;20094;-69
2022/10/24 05:52:44;;;;;;;3.88;1.02;;;16.70;99.90;;;;;;5092651;28;20525;-69
2022/10/24 05:55:10;;;;;;;2.92;1.25;;;16.80;99.90;;;;;;5082664;28;20112;-69
2022/10/24 05:57:37;;;;;;;9.50;1.48;;;16.80;99.90;;;;;;5073575;28;20028;-69
2022/10/24 06:00:07;;;;;;;5.97;1.35;;;16.80;99.90;;;;;;5073416;28;20417;-69
2022/10/24 06:02:33;;;;;;;13.50;4.72;;;16.80;99.90;;;;;;5073440;28;20025;-69
2022/10/24 06:04:59;;;;;;;6.22;1.95;;;16.80;99.90;;;;;;5073296;28;20039;-69
2022/10/24 06:07:24;;;;;;;5.57;1.83;;;16.80;99.90;;;;;;5072682;28;20024;-69
2022/10/24 06:09:50;;;;;;;7.63;1.20;;;16.80;99.90;;;;;;5072960;28;20028;-69
2022/10/24 06:12:16;;;;;;;15.70;4.00;;;16.80;99.90;;;;;;5073228;28;20539;-69
2022/10/24 06:14:43;;;;;;;8.95;1.88;;;16.80;99.90;;;;;;5073082;28;20074;-69
2022/10/24 06:17:10;;;;;;;8.63;1.42;;;16.80;99.90;;;;;;5072931;28;20021;-69
2022/10/24 06:19:37;;;;;;;9.40;2.53;;;16.80;99.90;;;;;;5072709;28;20028;-68
2022/10/24 06:22:04;;;;;;;7.75;1.92;;;16.80;99.90;;;;;;5073078;28;20025;-69
2022/10/24 06:24:32;;;;;;;8.02;1.80;;;16.80;99.90;;;;;;5072937;28;20535;-68
2022/10/24 06:26:58;;;;;;;9.90;2.70;;;16.80;99.90;;;;;;5072756;28;20097;-68
2022/10/24 06:29:23;;;;;;;18.33;5.70;;;16.80;99.90;;;;;;5072495;28;20508;-68
2022/10/24 06:31:49;;;;;;;14.60;5.70;;;16.80;99.90;;;;;;5071144;28;20112;-69
2022/10/24 06:34:14;;;;;;;14.93;3.75;;;16.80;99.90;;;;;;5068811;28;20402;-68
2022/10/24 06:36:40;;;;;;;7.70;1.48;;;16.80;99.90;;;;;;5071587;28;20369;-68
2022/10/24 06:39:05;;;;;;;7.18;2.25;;;16.80;99.90;;;;;;5072847;28;20471;-68
2022/10/24 06:41:31;;;;;;;5.45;1.52;;;16.80;99.90;;;;;;5072637;28;20360;-69
2022/10/24 06:43:57;;;;;;;5.72;1.33;;;16.70;99.90;;;;;;5072203;28;20039;-68
2022/10/24 06:46:23;;;;;;;7.13;2.28;;;16.70;99.90;;;;;;5071530;28;20071;-67
2022/10/24 06:48:53;;;;;;;14.50;2.72;;;16.60;99.90;;;;;;5072632;28;20452;-67
2022/10/24 06:51:23;;;;;;;12.02;3.08;;;16.50;99.90;;;;;;5072666;28;20039;-68
2022/10/24 06:53:49;;;;;;;12.55;2.92;;;16.40;99.90;;;;;;5072465;28;20066;-68
2022/10/24 06:56:17;;;;;;;10.43;2.25;;;16.30;99.90;;;;;;5072406;28;20415;-68
2022/10/24 06:58:42;;;;;;;9.25;1.83;;;16.10;99.90;;;;;;5072502;28;20029;-68
2022/10/24 07:01:14;;;;;;;5.90;1.60;;;16.00;99.90;;;;;;5072156;28;20021;-68
2022/10/24 07:03:40;;;;;;;6.65;1.33;;;16.00;99.90;;;;;;5072643;28;20023;-68
2022/10/24 07:06:27;;;;;;;3.05;0.90;;;15.90;99.90;;;;;;5070893;28;20040;-68
2022/10/24 07:08:55;;;;;;;6.45;1.38;;;15.90;99.90;;;;;;5071713;28;20041;-68
2022/10/24 07:11:21;;;;;;;5.75;1.23;;;15.90;99.90;;;;;;5072688;28;20438;-68
2022/10/24 07:13:47;;;;;;;9.73;2.70;;;15.90;99.90;;;;;;5067216;28;20091;-68
2022/10/24 07:16:13;;;;;;;4.78;1.45;;;15.80;99.90;;;;;;5072122;28;20040;-68
2022/10/24 07:18:39;;;;;;;6.50;1.50;;;15.80;99.90;;;;;;5071676;28;20064;-68
2022/10/24 07:21:07;;;;;;;12.93;1.85;;;15.80;99.90;;;;;;5070600;28;20449;-67
2022/10/24 07:23:34;;;;;;;9.65;1.83;;;15.80;99.90;;;;;;5072009;28;20020;-67
2022/10/24 07:26:04;;;;;;;7.00;1.10;;;15.70;99.90;;;;;;5072008;28;20449;-68
2022/10/24 07:28:30;;;;;;;6.97;1.27;;;15.70;99.90;;;;;;5071783;28;20051;-68
2022/10/24 07:30:55;;;;;;;12.07;2.38;;;15.70;99.90;;;;;;5072384;28;20020;-68
2022/10/24 07:33:21;;;;;;;10.65;1.80;;;15.70;99.90;;;;;;5071830;28;20021;-68
2022/10/24 07:35:46;;;;;;;9.32;1.58;;;15.70;99.90;;;;;;5071721;28;20039;-67
2022/10/24 07:38:12;;;;;;;3.15;1.20;;;15.70;99.90;;;;;;5072102;28;20028;-67
2022/10/24 07:40:37;;;;;;;7.72;2.22;;;15.60;99.90;;;;;;5072348;28;20028;-67
2022/10/24 07:43:03;;;;;;;8.27;2.15;;;15.70;99.90;;;;;;5072119;28;20027;-67
2022/10/24 07:45:31;;;;;;;8.40;1.63;;;15.70;99.90;;;;;;5072398;28;20024;-67
2022/10/24 07:47:58;;;;;;;8.57;1.50;;;15.70;99.90;;;;;;5072211;28;20059;-67
2022/10/24 07:50:23;;;;;;;8.18;1.75;;;15.70;99.90;;;;;;5072071;28;20078;-67
2022/10/24 07:52:49;;;;;;;7.60;1.70;;;15.70;99.90;;;;;;5071705;28;20036;-67
2022/10/24 07:55:15;;;;;;;9.20;1.83;;;15.60;99.90;;;;;;5071906;28;20394;-67
2022/10/24 07:57:40;;;;;;;5.97;1.98;;;15.60;99.90;;;;;;5073195;28;20449;-67
2022/10/24 08:00:07;;;;;;;8.40;2.13;;;15.50;99.90;;;;;;5075128;28;20032;-67
2022/10/24 08:02:32;;;;;;;5.15;1.75;;;15.50;99.90;;;;;;5094074;28;20028;-67
2022/10/24 08:04:58;;;;;;;9.93;2.42;;;15.40;99.90;;;;;;5095801;28;20089;-68
2022/10/24 08:07:24;;;;;;;8.93;1.52;;;15.40;99.90;;;;;;5095873;28;20027;-67
2022/10/24 08:09:50;;;;;;;6.63;2.05;;;15.40;99.90;;;;;;5094772;28;20115;-68
2022/10/24 08:12:16;;;;;;;11.70;2.53;;;15.40;99.90;;;;;;5094378;28;20432;-67
2022/10/24 08:14:42;;;;;;;11.50;1.98;;;15.40;99.90;;;;;;5085987;28;20067;-68
2022/10/24 08:17:09;;;;;;;11.43;2.08;;;15.60;99.90;;;;;;5074636;28;20081;-68
2022/10/24 08:19:35;;;;;;;9.93;1.80;;;15.80;99.90;;;;;;5074076;28;20016;-67
2022/10/24 08:22:02;;;;;;;13.30;1.83;;;16.00;99.90;;;;;;5069416;28;20406;-68
2022/10/24 08:24:28;;;;;;;10.68;1.90;;;16.20;99.90;;;;;;5078626;28;20338;-68
2022/10/24 08:26:55;;;;;;;7.75;1.77;;;16.40;99.90;;;;;;5078893;28;20031;-68
2022/10/24 08:29:22;;;;;;;6.32;1.63;;;16.60;99.90;;;;;;5095164;28;20055;-68
2022/10/24 08:31:49;;;;;;;13.10;2.15;;;16.70;99.90;;;;;;5086026;28;20067;-68
2022/10/24 08:34:15;;;;;;;10.75;1.70;;;16.80;99.90;;;;;;5074241;28;20359;-68
2022/10/24 08:36:41;;;;;;;10.07;1.98;;;16.90;99.90;;;;;;5077172;28;20517;-68
2022/10/24 08:39:07;;;;;;;9.95;1.73;;;17.00;99.90;;;;;;5075344;28;20032;-68
2022/10/24 08:41:39;;;;;;;9.82;1.70;;;17.00;99.90;;;;;;5085464;28;20081;-67
2022/10/24 08:44:41;;;;;;;12.63;1.88;;;17.20;99.90;;;;;;5074886;28;20403;-67
2022/10/24 08:47:30;;;;;;;6.28;1.33;;;17.40;99.90;;;;;;5071406;28;20032;-67
2022/10/24 08:50:20;;;;;;;6.18;1.40;;;17.50;99.90;;;;;;5067980;28;20036;-68
2022/10/24 08:52:51;;;;;;;7.90;1.65;;;17.80;99.90;;;;;;5078043;28;20048;-67
2022/10/24 08:55:21;;;;;;;5.45;1.73;;;18.00;99.90;;;;;;5093012;28;20028;-67
2022/10/24 08:57:51;;;;;;;6.65;1.60;;;18.10;99.90;;;;;;5094799;28;20055;-67
2022/10/24 09:00:25;;;;;;;14.77;2.08;;;18.30;99.90;;;;;;5093450;28;20360;-67
2022/10/24 09:02:58;;;;;;;11.43;1.55;;;18.30;99.90;;;;;;5094392;28;20081;-67
2022/10/24 09:05:30;;;;;;;8.35;1.75;;;18.30;99.90;;;;;;5073255;28;20028;-67
2022/10/24 09:08:01;;;;;;;6.43;1.42;;;18.40;99.90;;;;;;5063188;28;20156;-67
2022/10/24 09:10:45;;;;;;;10.80;1.77;;;18.60;99.90;;;;;;5073972;28;20036;-67
2022/10/24 09:13:16;;;;;;;10.18;1.55;;;18.90;99.90;;;;;;5073418;28;20043;-67
2022/10/24 09:15:44;;;;;;;12.23;1.77;;;19.10;99.90;;;;;;5074314;28;20055;-67
2022/10/24 09:18:24;;;;;;;8.85;1.95;;;19.20;99.90;;;;;;5074110;28;20032;-68
2022/10/24 09:20:52;;;;;;;13.15;1.98;;;19.60;99.90;;;;;;5073851;28;20025;-68
2022/10/24 09:23:21;;;;;;;11.32;2.10;;;19.80;99.90;;;;;;5074192;28;20027;-67
2022/10/24 09:25:50;;;;;;;11.98;2.00;;;19.90;99.90;;;;;;5073259;28;20054;-67
2022/10/24 09:28:17;;;;;;;11.73;2.22;;;19.90;99.90;;;;;;5073721;28;20044;-67
2022/10/24 09:30:43;;;;;;;12.32;2.22;;;20.30;99.90;;;;;;5053936;28;20025;-67
2022/10/24 09:33:18;;;;;;;12.40;2.40;;;20.70;99.90;;;;;;5052055;28;20057;-67
2022/10/24 09:35:44;;;;;;;16.10;2.53;;;20.60;99.90;;;;;;5052580;28;20120;-67
2022/10/24 09:38:24;;;;;;;17.70;2.85;;;20.20;99.90;;;;;;5053810;28;20437;-68
2022/10/24 09:40:51;;;;;;;15.18;2.40;;;20.10;99.90;;;;;;5061701;28;20035;-69
2022/10/24 09:43:30;;;;;;;14.60;2.25;;;20.40;99.90;;;;;;5073002;28;20053;-68
2022/10/24 09:46:18;;;;;;;20.02;2.42;;;20.50;99.90;;;;;;5073485;28;20065;-68
2022/10/24 09:48:49;;;;;;;12.20;2.25;;;20.60;99.90;;;;;;5073160;28;20025;-69
2022/10/24 09:51:25;;;;;;;8.88;1.80;;;21.20;99.90;;;;;;5072526;28;20028;-69
2022/10/24 09:54:06;;;;;;;9.50;2.50;;;21.60;99.90;;;;;;5072243;28;20411;-68
2022/10/24 09:56:39;;;;;;;11.98;2.20;;;21.40;99.90;;;;;;5072400;28;20032;-68
2022/10/24 09:59:33;;;;;;;11.43;1.67;;;21.40;99.90;;;;;;5072638;28;20460;-68
2022/10/24 10:02:17;;;;;;;12.18;2.25;;;20.90;99.90;;;;;;5073512;28;20025;-68
2022/10/24 10:04:46;;;;;;;8.70;1.98;;;20.70;99.90;;;;;;5053204;28;20033;-68
2022/10/24 10:07:24;;;;;;;9.15;1.95;;;20.60;99.90;;;;;;5065364;28;20029;-68
2022/10/24 10:10:19;;;;;;;10.77;2.20;;;20.50;99.90;;;;;;5072772;28;20435;-68
2022/10/24 10:12:54;;;;;;;9.35;1.77;;;20.40;99.90;;;;;;5052826;28;20036;-68
2022/10/24 10:15:31;;;;;;;10.55;2.72;;;20.10;99.90;;;;;;5069786;28;20032;-68
2022/10/24 10:18:00;;;;;;;9.30;1.42;;;20.30;99.90;;;;;;5072257;28;20040;-68
2022/10/24 10:20:33;;;;;;;10.77;1.83;;;20.40;99.90;;;;;;5073176;28;20304;-68
2022/10/24 10:23:43;;;;;;;10.57;1.83;;;20.50;99.90;;;;;;5073119;28;20024;-68
2022/10/24 10:26:42;;;;;;;12.30;2.20;;;20.60;99.90;;;;;;5028931;28;20728;-68
2022/10/24 10:29:16;;;;;;;13.88;2.30;;;20.50;99.90;;;;;;5051407;28;20128;-68
2022/10/24 10:32:10;;;;;;;9.15;1.92;;;20.60;99.90;;;;;;5053567;28;20457;-66
2022/10/24 10:34:55;;;;;;;10.75;2.40;;;20.60;99.90;;;;;;5068809;28;20063;-67
2022/10/24 10:37:29;;;;;;;11.18;2.28;;;20.30;99.90;;;;;;5072113;28;20053;-66
2022/10/24 10:40:11;;;;;;;13.98;2.08;;;20.20;99.90;;;;;;5072400;28;20052;-66
2022/10/24 10:42:39;;;;;;;;;;;20.50;99.90;;;;;;5070682;28;20073;-67
2022/10/24 10:45:18;;;;;;;10.05;2.22;;;20.60;99.90;;;;;;5072292;28;19999;-67
2022/10/24 10:48:02;;;;;;;13.65;2.70;;;20.80;99.90;;;;;;5071574;28;20111;-67
2022/10/24 10:51:05;;;;;;;9.95;2.25;;;21.00;99.90;;;;;;5072514;28;20040;-67
2022/10/24 10:53:42;;;;;;;15.65;2.45;;;20.90;99.90;;;;;;5070994;28;20040;-67
2022/10/24 10:56:31;;;;;;;11.60;2.05;;;20.50;99.90;;;;;;5072679;28;20024;-67
2022/10/24 10:59:13;;;;;;;9.50;2.15;;;20.20;99.90;;;;;;5072424;28;20047;-67
2022/10/24 11:01:42;;;;;;;9.73;2.13;;;19.70;99.90;;;;;;5072500;28;20028;-67
2022/10/24 11:04:37;;;;;;;16.95;3.35;;;19.30;99.90;;;;;;5072300;28;20031;-68
2022/10/24 11:07:02;;;;;;;18.05;3.03;;;19.10;99.90;;;;;;5052756;28;20033;-67
2022/10/24 11:09:43;;;;;;;18.17;3.22;;;18.90;99.90;;;;;;5053596;28;20027;-67
2022/10/24 11:12:29;;;;;;;18.88;3.58;;;19.00;99.90;;;;;;5072165;28;20029;-67
2022/10/24 11:15:25;;;;;;;13.10;2.10;;;18.90;99.90;;;;;;5067347;28;20096;-67
2022/10/24 11:18:00;;;;;;;9.50;2.60;;;19.20;99.90;;;;;;5052516;28;20059;-67
2022/10/24 11:20:28;;;;;;;13.05;2.65;;;19.30;99.90;;;;;;5060658;28;20071;-67
2022/10/24 11:23:08;;;;;;;9.23;2.05;;;19.30;99.90;;;;;;5072381;28;20021;-67
2022/10/24 11:25:58;;;;;;;13.48;2.83;;;19.30;99.90;;;;;;5071398;28;20027;-67
2022/10/24 11:28:38;;;;;;;10.25;1.80;;;19.20;99.90;;;;;;5072097;28;20545;-68
2022/10/24 11:31:14;;;;;;;12.15;1.90;;;18.90;99.90;;;;;;5072146;28;20119;-67
2022/10/24 11:33:53;;;;;;;14.52;2.72;;;18.90;99.90;;;;;;5076376;28;20024;-67
2022/10/24 11:36:37;;;;;;;16.77;2.38;;;19.10;99.90;;;;;;5074869;28;20043;-67
2022/10/24 11:39:21;;;;;;;11.23;1.92;;;19.20;99.90;;;;;;5075768;28;20031;-67
2022/10/24 11:42:09;;;;;;;12.45;2.65;;;19.10;99.90;;;;;;5073308;28;20074;-67
2022/10/24 11:45:03;;;;;;;11.90;2.30;;;19.20;99.90;;;;;;5076095;28;20418;-67
2022/10/24 11:47:40;;;;;;;7.40;1.33;;;19.50;99.90;;;;;;5076000;28;20066;-67
2022/10/24 11:50:20;;;;;;;11.63;1.55;;;19.50;99.90;;;;;;5075668;28;20028;-67
2022/10/24 11:52:50;;;;;;;8.63;1.58;;;19.30;99.90;;;;;;5075803;28;20040;-68
2022/10/24 11:55:22;;;;;;;13.48;2.40;;;19.10;99.90;;;;;;5075915;28;20062;-68
2022/10/24 11:57:52;;;;;;;10.07;1.85;;;18.80;99.90;;;;;;5069742;28;20035;-67
2022/10/24 12:00:23;;;;;;;8.23;1.67;;;18.50;99.90;;;;;;5075403;28;20028;-67
2022/10/24 12:03:01;;;;;;;5.47;1.15;;;18.30;99.90;;;;;;5075493;28;20468;-67
2022/10/24 12:06:09;;;;;;;10.23;1.40;;;18.10;99.90;;;;;;5075543;28;20384;-67
2022/10/24 12:08:46;;;;;;;10.00;1.77;;;17.90;99.90;;;;;;5060844;28;20487;-67
2022/10/24 12:11:27;;;;;;;14.48;2.20;;;17.60;99.90;;;;;;5075472;28;20035;-67
2022/10/24 12:14:35;;;;;;;7.30;1.42;;;17.50;99.90;;;;;;5075545;28;20028;-67
2022/10/24 12:17:21;;;;;;;5.55;1.25;;;17.30;99.90;;;;;;5074042;28;20033;-67
2022/10/24 12:19:49;;;;;;;5.65;1.30;;;17.30;99.90;;;;;;5075298;28;20024;-66
2022/10/24 12:22:20;;;;;;;6.32;1.60;;;17.30;99.90;;;;;;5074775;28;20040;-67
2022/10/24 12:24:46;;;;;;;15.48;2.30;;;17.40;99.90;;;;;;5075484;28;20035;-67
2022/10/24 12:27:21;;;;;;;9.65;1.63;;;17.50;99.90;;;;;;5075429;28;20035;-67
2022/10/24 12:30:01;;;;;;;5.72;1.52;;;17.60;99.90;;;;;;5075112;28;20135;-67
2022/10/24 12:32:41;;;;;;;10.75;1.90;;;17.70;99.90;;;;;;5073528;28;20072;-68
2022/10/24 12:35:43;;;;;;;10.32;1.55;;;17.70;99.90;;;;;;5073770;28;20037;-67
2022/10/24 12:38:36;;;;;;;11.50;1.48;;;17.70;99.90;;;;;;5074790;28;20021;-67
2022/10/24 12:41:26;;;;;;;17.00;1.75;;;17.80;99.90;;;;;;5071081;28;20372;-67
2022/10/24 12:44:34;;;;;;;14.77;2.28;;;17.80;99.90;;;;;;5073188;28;20033;-67
2022/10/24 12:47:21;;;;;;;14.27;1.98;;;17.80;99.90;;;;;;5075217;28;20052;-67
2022/10/24 12:49:47;;;;;;;15.15;1.67;;;17.80;99.90;;;;;;5073605;28;20028;-67
2022/10/24 12:52:30;;;;;;;10.68;2.03;;;17.80;99.90;;;;;;5074777;28;20522;-67
2022/10/24 12:54:57;;;;;;;10.75;2.28;;;17.70;99.90;;;;;;5074696;28;20453;-67
2022/10/24 12:57:27;;;;;;;10.77;1.77;;;17.70;99.90;;;;;;5074815;28;20036;-67
2022/10/24 12:59:56;;;;;;;14.70;2.30;;;17.60;99.90;;;;;;5074526;28;20029;-67
2022/10/24 13:02:30;;;;;;;11.70;1.75;;;17.70;99.90;;;;;;5074587;28;20028;-67
2022/10/24 13:05:20;;;;;;;8.75;1.63;;;17.60;99.90;;;;;;5074140;28;20040;-67
2022/10/24 13:08:34;;;;;;;10.50;2.58;;;17.70;99.90;;;;;;5074421;28;20025;-67